SondeTracker

Meteorological Radiosondes Database

Operations

Sounding was ended - last measurement: 2022-12-06 13:21:36z

MAP
About Radiosonde

Number: T4710359

Launch Site: Resistencia (AR)

Type: RS41

AUX: NO

Frequency: 402.000 MHz

Max Speed: 85 km/h at 8890 m

Average Speed: 34.78 km/h

Max Altitude: 28003 m

Average Ascent Speed: 5.43 m/s

Average Descent Speed: 20.25 m/s

Status: UNKNOWN

Status Changes
Launch Site Type AUX Frequency Status Finder Landing Point Description Changes made by
APRS Statistics

Received Frames: 125

First Frame [UTC]: 2022-12-06 11:35:23z

Last Frame [UTC]: 2022-12-06 13:21:36z

Receivers: LU3GHF

Flight Time: 01:46:13 h

Distance From First Measurement: 10.22 km

Nearest City: Resistencia (AR) [5.18 km]

Nearest Hunter: [0.00 km]

Ground Altitude: 49 m

Distance from QTH: 0.00 km

APRS Data
Receiver Number Date/Time [UTC] φ λ Course [°] Speed [km/h] Altitude [m] Description
LU3GHFT47103592022-12-06 13:21:36-27.4918-58.960523113135Clb=-15.6m/s t=31.0C h=56.1% p=-1.0hPa 401.998 MHz Type=RS41-SG ser=T4710359 Radiosonde
LU3GHFT47103592022-12-06 13:20:58-27.4909-58.959919222609Clb=-16.8m/s t=26.6C h=64.6% p=-1.0hPa 402.000 MHz Type=RS41-SG ser=T4710359 Radiosonde
LU3GHFT47103592022-12-06 13:20:16-27.489-58.9598176201118Clb=-16.0m/s t=22.9C h=65.2% p=-1.0hPa 402.000 MHz Type=RS41-SG ser=T4710359 Radiosonde
LU3GHFT47103592022-12-06 13:19:29-27.4875-58.959921541661Clb=-16.5m/s t=19.7C h=40.4% p=-1.0hPa 402.000 MHz Type=RS41-SG ser=T4710359 Radiosonde
LU3GHFT47103592022-12-06 13:18:47-27.487-58.959517192191Clb=-17.3m/s t=15.9C h=39.0% p=-1.0hPa 402.000 MHz Type=RS41-SG ser=T4710359 Radiosonde
LU3GHFT47103592022-12-06 13:18:09-27.4872-58.959935112684Clb=-17.0m/s t=15.4C h=5.5% p=-1.0hPa 402.000 MHz Type=RS41-SG ser=T4710359 Radiosonde
LU3GHFT47103592022-12-06 13:17:23-27.4882-58.960946243217Clb=-16.3m/s t=12.3C h=4.9% p=-1.0hPa 402.000 MHz Type=RS41-SG ser=T4710359 Radiosonde
LU3GHFT47103592022-12-06 13:16:41-27.4896-58.961820243733Clb=-17.2m/s t=7.8C h=7.5% p=-1.0hPa 402.000 MHz Type=RS41-SG ser=T4710359 Radiosonde
LU3GHFT47103592022-12-06 13:16:04-27.491-58.962135774297Clb=-17.5m/s t=3.5C h=6.3% p=-1.0hPa 402.000 MHz Type=RS41-SG ser=T4710359 Radiosonde
LU3GHFT47103592022-12-06 13:15:20-27.4917-58.96246065083Clb=-19.2m/s t=-0.7C h=6.7% p=-1.0hPa 402.000 MHz Type=RS41-SG ser=T4710359 Radiosonde
LU3GHFT47103592022-12-06 13:14:38-27.4918-58.96311295490Clb=-19.7m/s t=-2.6C h=7.8% p=-1.0hPa 402.000 MHz Type=RS41-SG ser=T4710359 Radiosonde
LU3GHFT47103592022-12-06 13:13:58-27.4925-58.963734176100Clb=-18.4m/s t=-6.9C h=14.6% p=-1.0hPa 402.000 MHz Type=RS41-SG ser=T4710359 Radiosonde
LU3GHFT47103592022-12-06 13:13:13-27.4933-58.965151206661Clb=-19.8m/s t=-10.5C h=1.9% p=-1.0hPa 402.000 MHz Type=RS41-SG ser=T4710359 Radiosonde
LU3GHFT47103592022-12-06 13:12:28-27.4948-58.966761267297Clb=-21.0m/s t=-14.7C h=29.4% p=-1.0hPa 402.000 MHz Type=RS41-SG ser=T4710359 Radiosonde
LU3GHFT47103592022-12-06 13:12:01-27.4953-58.970187397945Clb=-21.9m/s t=-17.7C h=8.3% p=-1.0hPa 402.000 MHz Type=RS41-SG ser=T4710359 Radiosonde
LU3GHFT47103592022-12-06 13:11:54-27.4951-58.974391548641Clb=-22.7m/s t=-23.6C h=14.3% p=-1.0hPa 402.000 MHz Type=RS41-SG ser=T4710359 Radiosonde
LU3GHFT47103592022-12-06 13:11:47-27.4945-58.980199749302Clb=-22.7m/s t=-28.5C h=33.8% p=-1.0hPa 402.000 MHz Type=RS41-SG ser=T4710359 Radiosonde
LU3GHFT47103592022-12-06 13:11:39-27.4944-58.986884859995Clb=-23.7m/s t=-32.8C h=11.1% p=-1.0hPa 402.000 MHz Type=RS41-SG ser=T4710359 Radiosonde
LU3GHFT47103592022-12-06 13:11:37-27.4958-58.9943738310710Clb=-25.3m/s t=-38.3C h=22.8% p=-1.0hPa 402.000 MHz Type=RS41-SG ser=T4710359 Radiosonde
LU3GHFT47103592022-12-06 13:11:30-27.4971-59.0015736511568Clb=-25.4m/s t=-44.7C h=25.1% p=-1.0hPa 402.000 MHz Type=RS41-SG ser=T4710359 Radiosonde
LU3GHFT47103592022-12-06 13:11:02-27.4985-59.0065766312289Clb=-28.6m/s t=-50.2C h=10.7% p=-1.0hPa 402.000 MHz Type=RS41-SG ser=T4710359 Radiosonde
LU3GHFT47103592022-12-06 13:10:15-27.4984-59.0123935913090Clb=-24.0m/s t=-56.9C h=11.2% p=-1.0hPa 402.000 MHz Type=RS41-SG ser=T4710359 Radiosonde
LU3GHFT47103592022-12-06 13:09:19-27.4975-59.01551344413818Clb=-25.1m/s t=-60.7C h=10.1% p=-1.0hPa 402.000 MHz Type=RS41-SG ser=T4710359 Radiosonde
LU3GHFT47103592022-12-06 13:08:27-27.4945-59.01971196114666Clb=-22.9m/s t=-67.8C h=11.9% p=-1.0hPa 402.000 MHz Type=RS41-SG ser=T4710359 Radiosonde
LU3GHFT47103592022-12-06 13:07:26-27.4933-59.02171551715394Clb=-23.8m/s t=-70.1C h=9.0% p=-1.0hPa 402.000 MHz Type=RS41-SG ser=T4710359 Radiosonde
LU3GHFT47103592022-12-06 13:05:50-27.492-59.01922374117049Clb=-27.3m/s t=-73.2C h=5.3% p=-1.0hPa 402.000 MHz Type=RS41-SG ser=T4710359 Radiosonde
LU3GHFT47103592022-12-06 13:05:03-27.4906-59.01652533917980Clb=-28.9m/s t=-76.0C h=6.0% p=-1.0hPa 402.000 MHz Type=RS41-SG ser=T4710359 Radiosonde
LU3GHFT47103592022-12-06 13:04:08-27.4892-59.01312423919008Clb=-34.1m/s t=-75.7C h=5.2% p=-1.0hPa 402.000 MHz Type=RS41-SG ser=T4710359 Radiosonde
LU3GHFT47103592022-12-06 13:03:15-27.4879-59.01052233020112Clb=-37.7m/s t=-70.7C h=3.7% p=-1.0hPa 402.000 MHz Type=RS41-SG ser=T4710359 Radiosonde
LU3GHFT47103592022-12-06 13:02:31-27.4867-59.00782564621419Clb=-41.8m/s t=-64.8C h=2.3% p=-1.0hPa 402.000 MHz Type=RS41-SG ser=T4710359 Radiosonde
LU3GHFT47103592022-12-06 13:01:42-27.4861-59.00472693922701Clb=-50.1m/s t=-63.0C h=2.2% p=-1.0hPa 402.000 MHz Type=RS41-SG ser=T4710359 Radiosonde
LU3GHFT47103592022-12-06 13:00:47-27.486-59.00062674324225Clb=-53.6m/s t=-59.0C h=1.9% p=-1.0hPa 402.000 MHz Type=RS41-SG ser=T4710359 Radiosonde
LU3GHFT47103592022-12-06 12:59:44-27.4848-58.9981852226000Clb=-60.9m/s t=-49.9C h=1.0% p=-1.0hPa 402.000 MHz Type=RS41-SG ser=T4710359 Radiosonde
LU3GHFT47103592022-12-06 12:58:40-27.4847-58.9962944328003Clb=-45.1m/s t=-49.8C h=1.0% p=-1.0hPa 402.000 MHz Type=RS41-SG ser=T4710359 Radiosonde
LU3GHFT47103592022-12-06 12:57:35-27.4853-58.99262605427964Clb=5.4m/s t=-50.6C h=1.0% p=-1.0hPa 402.000 MHz Type=RS41-SG ser=T4710359 Radiosonde
LU3GHFT47103592022-12-06 12:56:39-27.485-58.98983163027773Clb=4.4m/s t=-51.6C h=1.2% p=-1.0hPa 402.000 MHz Type=RS41-SG ser=T4710359 Radiosonde
LU3GHFT47103592022-12-06 12:55:45-27.4851-58.98683102627573Clb=5.9m/s t=-52.3C h=1.4% p=-1.0hPa 402.000 MHz Type=RS41-SG ser=T4710359 Radiosonde
LU3GHFT47103592022-12-06 12:54:46-27.4853-58.98412684127382Clb=7.4m/s t=-52.4C h=1.2% p=-1.0hPa 402.000 MHz Type=RS41-SG ser=T4710359 Radiosonde
LU3GHFT47103592022-12-06 12:53:53-27.4854-58.98142852627164Clb=7.3m/s t=-52.9C h=1.5% p=-1.0hPa 402.000 MHz Type=RS41-SG ser=T4710359 Radiosonde
LU3GHFT47103592022-12-06 12:52:58-27.4851-58.97952672426961Clb=6.2m/s t=-54.0C h=1.3% p=-1.0hPa 402.000 MHz Type=RS41-SG ser=T4710359 Radiosonde
LU3GHFT47103592022-12-06 12:51:50-27.4845-58.97882981926754Clb=3.8m/s t=-53.2C h=1.2% p=-1.0hPa 402.000 MHz Type=RS41-SG ser=T4710359 Radiosonde
LU3GHFT47103592022-12-06 12:50:54-27.4837-58.9792981326559Clb=8.6m/s t=-52.8C h=1.3% p=-1.0hPa 402.000 MHz Type=RS41-SG ser=T4710359 Radiosonde
LU3GHFT47103592022-12-06 12:49:50-27.4825-58.98021452226351Clb=7.5m/s t=-52.0C h=1.2% p=-1.0hPa 402.000 MHz Type=RS41-SG ser=T4710359 Radiosonde
LU3GHFT47103592022-12-06 12:48:44-27.4802-58.98061782826156Clb=3.9m/s t=-51.4C h=1.2% p=-1.0hPa 402.000 MHz Type=RS41-SG ser=T4710359 Radiosonde
LU3GHFT47103592022-12-06 12:47:39-27.4775-58.97981844325953Clb=6.3m/s t=-50.7C h=1.3% p=-1.0hPa 402.000 MHz Type=RS41-SG ser=T4710359 Radiosonde
LU3GHFT47103592022-12-06 12:46:41-27.4752-58.97752184125758Clb=3.8m/s t=-51.4C h=1.2% p=-1.0hPa 402.000 MHz Type=RS41-SG ser=T4710359 Radiosonde
LU3GHFT47103592022-12-06 12:45:41-27.4736-58.97362606325557Clb=5.0m/s t=-53.2C h=1.1% p=-1.0hPa 402.000 MHz Type=RS41-SG ser=T4710359 Radiosonde
LU3GHFT47103592022-12-06 12:44:36-27.4732-58.96942825425373Clb=5.0m/s t=-55.1C h=1.3% p=-1.0hPa 402.000 MHz Type=RS41-SG ser=T4710359 Radiosonde
LU3GHFT47103592022-12-06 12:43:59-27.4728-58.96542334625171Clb=4.5m/s t=-55.5C h=1.3% p=-1.0hPa 402.000 MHz Type=RS41-SG ser=T4710359 Radiosonde
LU3GHFT47103592022-12-06 12:43:50-27.4725-58.96262592824973Clb=5.1m/s t=-55.7C h=1.4% p=-1.0hPa 402.000 MHz Type=RS41-SG ser=T4710359 Radiosonde
LU3GHFT47103592022-12-06 12:43:48-27.4723-58.95912645424758Clb=7.4m/s t=-55.3C h=1.3% p=-1.0hPa 402.000 MHz Type=RS41-SG ser=T4710359 Radiosonde
LU3GHFT47103592022-12-06 12:43:35-27.4723-58.95522565024573Clb=5.1m/s t=-56.5C h=1.3% p=-1.0hPa 402.000 MHz Type=RS41-SG ser=T4710359 Radiosonde
LU3GHFT47103592022-12-06 12:43:20-27.4727-58.95092835724379Clb=6.0m/s t=-59.6C h=1.9% p=-1.0hPa 402.000 MHz Type=RS41-SG ser=T4710359 Radiosonde
LU3GHFT47103592022-12-06 12:42:42-27.4727-58.94642744624173Clb=6.6m/s t=-60.4C h=1.7% p=-1.0hPa 402.000 MHz Type=RS41-SG ser=T4710359 Radiosonde
LU3GHFT47103592022-12-06 12:42:00-27.4728-58.9422766123997Clb=6.5m/s t=-60.7C h=1.7% p=-1.0hPa 402.000 MHz Type=RS41-SG ser=T4710359 Radiosonde
LU3GHFT47103592022-12-06 12:41:56-27.4721-58.93662675923795Clb=7.0m/s t=-60.3C h=1.6% p=-1.0hPa 402.000 MHz Type=RS41-SG ser=T4710359 Radiosonde
LU3GHFT47103592022-12-06 12:41:52-27.4721-58.93242634323605Clb=4.2m/s t=-61.0C h=1.8% p=-1.0hPa 402.000 MHz Type=RS41-SG ser=T4710359 Radiosonde
LU3GHFT47103592022-12-06 12:41:50-27.4715-58.9282615923429Clb=6.3m/s t=-62.4C h=1.9% p=-1.0hPa 402.000 MHz Type=RS41-SG ser=T4710359 Radiosonde
LU3GHFT47103592022-12-06 12:41:48-27.4717-58.9242924323241Clb=7.2m/s t=-63.2C h=1.9% p=-1.0hPa 402.000 MHz Type=RS41-SG ser=T4710359 Radiosonde
LU3GHFT47103592022-12-06 12:41:45-27.4722-58.92062772223044Clb=6.2m/s t=-63.7C h=2.2% p=-1.0hPa 402.000 MHz Type=RS41-SG ser=T4710359 Radiosonde
LU3GHFT47103592022-12-06 12:41:18-27.4722-58.91732662822862Clb=5.5m/s t=-64.0C h=2.0% p=-1.0hPa 402.000 MHz Type=RS41-SG ser=T4710359 Radiosonde
LU3GHFT47103592022-12-06 12:40:35-27.4724-58.91483021722673Clb=4.2m/s t=-63.9C h=2.1% p=-1.0hPa 402.000 MHz Type=RS41-SG ser=T4710359 Radiosonde
LU3GHFT47103592022-12-06 12:39:32-27.4724-58.91282722622494Clb=6.3m/s t=-63.8C h=2.0% p=-1.0hPa 402.000 MHz Type=RS41-SG ser=T4710359 Radiosonde
LU3GHFT47103592022-12-06 12:38:22-27.471-58.91072223322310Clb=5.3m/s t=-64.1C h=2.1% p=-1.0hPa 402.000 MHz Type=RS41-SG ser=T4710359 Radiosonde
LU3GHFT47103592022-12-06 12:37:11-27.4694-58.90772374622129Clb=6.2m/s t=-63.9C h=2.1% p=-1.0hPa 402.000 MHz Type=RS41-SG ser=T4710359 Radiosonde
LU3GHFT47103592022-12-06 12:36:07-27.4679-58.90422575221948Clb=4.8m/s t=-64.2C h=2.2% p=-1.0hPa 402.000 MHz Type=RS41-SG ser=T4710359 Radiosonde
LU3GHFT47103592022-12-06 12:18:07-27.4354-58.8073252716211Clb=5.0m/s t=-70.8C h=11.9% p=-1.0hPa 402.000 MHz Type=RS41-SG ser=T4710359 Radiosonde
LU3GHFT47103592022-12-06 12:16:59-27.435-58.80682172016013Clb=4.5m/s t=-71.2C h=14.2% p=-1.0hPa 402.000 MHz Type=RS41-SG ser=T4710359 Radiosonde
LU3GHFT47103592022-12-06 12:16:00-27.4337-58.80591922015855Clb=4.6m/s t=-70.7C h=15.5% p=-1.0hPa 402.000 MHz Type=RS41-SG ser=T4710359 Radiosonde
LU3GHFT47103592022-12-06 12:15:57-27.4326-58.80521471115693Clb=4.5m/s t=-71.4C h=17.5% p=-1.0hPa 402.000 MHz Type=RS41-SG ser=T4710359 Radiosonde
LU3GHFT47103592022-12-06 12:15:54-27.4316-58.80551661915545Clb=3.5m/s t=-71.2C h=17.1% p=-1.0hPa 402.000 MHz Type=RS41-SG ser=T4710359 Radiosonde
LU3GHFT47103592022-12-06 12:15:50-27.4305-58.80661363015390Clb=4.7m/s t=-70.3C h=17.5% p=-1.0hPa 402.000 MHz Type=RS41-SG ser=T4710359 Radiosonde
LU3GHFT47103592022-12-06 12:15:47-27.4293-58.80681572015220Clb=8.1m/s t=-69.4C h=18.4% p=-1.0hPa 402.000 MHz Type=RS41-SG ser=T4710359 Radiosonde
LU3GHFT47103592022-12-06 12:15:42-27.4283-58.808773315033Clb=4.7m/s t=-69.0C h=20.1% p=-1.0hPa 402.000 MHz Type=RS41-SG ser=T4710359 Radiosonde
LU3GHFT47103592022-12-06 12:15:17-27.4272-58.81191135214865Clb=4.0m/s t=-69.4C h=21.1% p=-1.0hPa 402.000 MHz Type=RS41-SG ser=T4710359 Radiosonde
LU3GHFT47103592022-12-06 12:14:32-27.4252-58.81681165914707Clb=6.2m/s t=-68.2C h=17.5% p=-1.0hPa 402.000 MHz Type=RS41-SG ser=T4710359 Radiosonde
LU3GHFT47103592022-12-06 12:13:26-27.4222-58.82191216714527Clb=5.1m/s t=-66.5C h=14.1% p=-1.0hPa 402.000 MHz Type=RS41-SG ser=T4710359 Radiosonde
LU3GHFT47103592022-12-06 12:12:13-27.4197-58.82611325014375Clb=4.7m/s t=-65.1C h=11.3% p=-1.0hPa 402.000 MHz Type=RS41-SG ser=T4710359 Radiosonde
LU3GHFT47103592022-12-06 12:11:03-27.4169-58.83051267014217Clb=3.9m/s t=-63.5C h=9.5% p=-1.0hPa 402.000 MHz Type=RS41-SG ser=T4710359 Radiosonde
LU3GHFT47103592022-12-06 12:06:36-27.4342-58.967279809848Clb=5.1m/s t=-32.0C h=9.2% p=-1.0hPa 402.000 MHz Type=RS41-SG ser=T4710359 Radiosonde
LU3GHFT47103592022-12-06 12:05:20-27.4345-58.9734100809663Clb=5.1m/s t=-30.9C h=21.1% p=-1.0hPa 402.000 MHz Type=RS41-SG ser=T4710359 Radiosonde
LU3GHFT47103592022-12-06 12:04:00-27.4342-58.9803111699481Clb=4.7m/s t=-30.1C h=37.7% p=-1.0hPa 402.000 MHz Type=RS41-SG ser=T4710359 Radiosonde
LU3GHFT47103592022-12-06 12:02:50-27.4333-58.987196729281Clb=6.2m/s t=-28.3C h=31.9% p=-1.0hPa 402.000 MHz Type=RS41-SG ser=T4710359 Radiosonde
LU3GHFT47103592022-12-06 12:01:42-27.4326-58.993498569099Clb=5.8m/s t=-26.7C h=30.2% p=-1.0hPa 402.000 MHz Type=RS41-SG ser=T4710359 Radiosonde
LU3GHFT47103592022-12-06 12:00:39-27.4317-58.9996107858890Clb=6.0m/s t=-24.9C h=24.6% p=-1.0hPa 402.000 MHz Type=RS41-SG ser=T4710359 Radiosonde
LU3GHFT47103592022-12-06 11:59:15-27.4313-59.005998438624Clb=6.7m/s t=-23.6C h=13.8% p=-1.0hPa 402.000 MHz Type=RS41-SG ser=T4710359 Radiosonde
LU3GHFT47103592022-12-06 11:57:52-27.4312-59.0196528471Clb=4.7m/s t=-22.4C h=11.4% p=-1.0hPa 402.000 MHz Type=RS41-SG ser=T4710359 Radiosonde
LU3GHFT47103592022-12-06 11:56:42-27.4309-59.014485318273Clb=7.8m/s t=-20.8C h=8.4% p=-1.0hPa 402.000 MHz Type=RS41-SG ser=T4710359 Radiosonde
LU3GHFT47103592022-12-06 11:55:38-27.4308-59.018372418099Clb=9.5m/s t=-19.1C h=5.9% p=-1.0hPa 402.000 MHz Type=RS41-SG ser=T4710359 Radiosonde
LU3GHFT47103592022-12-06 11:54:22-27.4311-59.0223102507898Clb=8.6m/s t=-17.3C h=3.7% p=-1.0hPa 402.000 MHz Type=RS41-SG ser=T4710359 Radiosonde
LU3GHFT47103592022-12-06 11:53:05-27.431-59.025694357716Clb=7.6m/s t=-15.7C h=7.1% p=-1.0hPa 402.000 MHz Type=RS41-SG ser=T4710359 Radiosonde
LU3GHFT47103592022-12-06 11:51:55-27.4312-59.028762397498Clb=5.6m/s t=-16.3C h=30.6% p=-1.0hPa 402.000 MHz Type=RS41-SG ser=T4710359 Radiosonde
LU3GHFT47103592022-12-06 11:51:32-27.432-59.030572207303Clb=5.0m/s t=-15.6C h=30.9% p=-1.0hPa 402.000 MHz Type=RS41-SG ser=T4710359 Radiosonde
LU3GHFT47103592022-12-06 11:50:52-27.4334-59.031821207110Clb=4.5m/s t=-14.1C h=20.2% p=-1.0hPa 402.000 MHz Type=RS41-SG ser=T4710359 Radiosonde
LU3GHFT47103592022-12-06 11:50:31-27.4349-59.03285896914Clb=5.8m/s t=-12.8C h=2.4% p=-1.0hPa 402.000 MHz Type=RS41-SG ser=T4710359 Radiosonde
LU3GHFT47103592022-12-06 11:50:00-27.4358-59.034771286714Clb=5.7m/s t=-12.2C h=19.9% p=-1.0hPa 402.000 MHz Type=RS41-SG ser=T4710359 Radiosonde
LU3GHFT47103592022-12-06 11:49:53-27.4366-59.036235296540Clb=7.4m/s t=-10.9C h=17.4% p=-1.0hPa 402.000 MHz Type=RS41-SG ser=T4710359 Radiosonde
LU3GHFT47103592022-12-06 11:49:43-27.4377-59.03721496346Clb=4.2m/s t=-9.2C h=16.2% p=-1.0hPa 402.000 MHz Type=RS41-SG ser=T4710359 Radiosonde
LU3GHFT47103592022-12-06 11:49:06-27.4391-59.037626156151Clb=2.8m/s t=-7.4C h=14.8% p=-1.0hPa 402.000 MHz Type=RS41-SG ser=T4710359 Radiosonde
LU3GHFT47103592022-12-06 11:48:51-27.4407-59.038348175962Clb=5.4m/s t=-5.9C h=9.3% p=-1.0hPa 402.000 MHz Type=RS41-SG ser=T4710359 Radiosonde
LU3GHFT47103592022-12-06 11:48:48-27.4412-59.0387475753Clb=4.6m/s t=-4.6C h=3.1% p=-1.0hPa 402.000 MHz Type=RS41-SG ser=T4710359 Radiosonde
LU3GHFT47103592022-12-06 11:48:45-27.4411-59.0383103195561Clb=5.7m/s t=-3.9C h=18.5% p=-1.0hPa 402.000 MHz Type=RS41-SG ser=T4710359 Radiosonde
LU3GHFT47103592022-12-06 11:48:43-27.4412-59.039159195358Clb=8.1m/s t=-2.5C h=17.8% p=-1.0hPa 402.000 MHz Type=RS41-SG ser=T4710359 Radiosonde
LU3GHFT47103592022-12-06 11:48:41-27.4416-59.040616175132Clb=5.7m/s t=-1.0C h=10.9% p=-1.0hPa 402.000 MHz Type=RS41-SG ser=T4710359 Radiosonde
LU3GHFT47103592022-12-06 11:48:39-27.442-59.041233564950Clb=7.2m/s t=-0.3C h=12.3% p=-1.0hPa 402.000 MHz Type=RS41-SG ser=T4710359 Radiosonde
LU3GHFT47103592022-12-06 11:48:36-27.4421-59.041334194759Clb=7.4m/s t=1.0C h=8.9% p=-1.0hPa 402.000 MHz Type=RS41-SG ser=T4710359 Radiosonde
LU3GHFT47103592022-12-06 11:48:12-27.4432-59.04244414567Clb=4.1m/s t=1.8C h=5.8% p=-1.0hPa 402.000 MHz Type=RS41-SG ser=T4710359 Radiosonde
LU3GHFT47103592022-12-06 11:47:04-27.4443-59.0423326174359Clb=4.9m/s t=3.1C h=6.2% p=-1.0hPa 402.000 MHz Type=RS41-SG ser=T4710359 Radiosonde
LU3GHFT47103592022-12-06 11:46:05-27.4456-59.042733374173Clb=6.0m/s t=4.6C h=6.3% p=-1.0hPa 402.000 MHz Type=RS41-SG ser=T4710359 Radiosonde
LU3GHFT47103592022-12-06 11:45:04-27.4468-59.043293223981Clb=6.1m/s t=6.0C h=6.7% p=-1.0hPa 402.000 MHz Type=RS41-SG ser=T4710359 Radiosonde
LU3GHFT47103592022-12-06 11:44:02-27.4486-59.044347283772Clb=7.3m/s t=7.6C h=7.8% p=-1.0hPa 402.000 MHz Type=RS41-SG ser=T4710359 Radiosonde
LU3GHFT47103592022-12-06 11:43:02-27.4502-59.045105203589Clb=5.7m/s t=9.4C h=7.1% p=-1.0hPa 402.000 MHz Type=RS41-SG ser=T4710359 Radiosonde
LU3GHFT47103592022-12-06 11:41:56-27.4514-59.04655393422Clb=5.0m/s t=11.0C h=6.4% p=-1.0hPa 402.000 MHz Type=RS41-SG ser=T4710359 Radiosonde
LU3GHFT47103592022-12-06 11:40:55-27.4529-59.047126413221Clb=5.5m/s t=12.8C h=5.6% p=-1.0hPa 402.000 MHz Type=RS41-SG ser=T4710359 Radiosonde
LU3GHFT47103592022-12-06 11:40:00-27.4541-59.048244223041Clb=6.6m/s t=14.1C h=3.8% p=-1.0hPa 402.000 MHz Type=RS41-SG ser=T4710359 Radiosonde
LU3GHFT47103592022-12-06 11:39:31-27.4545-59.049122062864Clb=5.0m/s t=14.5C h=5.8% p=-1.0hPa 402.000 MHz Type=RS41-SG ser=T4710359 Radiosonde
LU3GHFT47103592022-12-06 11:38:58-27.455-59.051312682Clb=5.6m/s t=15.6C h=5.4% p=-1.0hPa 402.000 MHz Type=RS41-SG ser=T4710359 Radiosonde
LU3GHFT47103592022-12-06 11:38:27-27.4559-59.0506159172496Clb=5.4m/s t=15.8C h=13.3% p=-1.0hPa 402.000 MHz Type=RS41-SG ser=T4710359 Radiosonde
LU3GHFT47103592022-12-06 11:37:56-27.4558-59.051624242295Clb=7.6m/s t=15.9C h=28.9% p=-1.0hPa 402.000 MHz Type=RS41-SG ser=T4710359 Radiosonde
LU3GHFT47103592022-12-06 11:37:28-27.4551-59.0518160202115Clb=5.5m/s t=16.6C h=37.4% p=-1.0hPa 402.000 MHz Type=RS41-SG ser=T4710359 Radiosonde
LU3GHFT47103592022-12-06 11:36:54-27.4545-59.0514347131922Clb=4.5m/s t=18.1C h=35.2% p=-1.0hPa 402.000 MHz Type=RS41-SG ser=T4710359 Radiosonde
LU3GHFT47103592022-12-06 11:36:29-27.4539-59.0511114111738Clb=10.6m/s t=19.1C h=38.4% p=-1.0hPa 402.000 MHz Type=RS41-SG ser=T4710359 Radiosonde
LU3GHFT47103592022-12-06 11:36:27-27.453-59.05122371557Clb=4.4m/s t=19.3C h=-1.0% p=-1.0hPa 402.000 MHz Type=RS41-SG ser=T4710359 Radiosonde
LU3GHFT47103592022-12-06 11:36:09-27.4466-59.05189501032Clb=6.9m/s t=-273.0C h=-1.0% p=-1.0hPa 402.000 MHz Type=RS41-SG ser=T4710359 Radiosonde
LU3GHFT47103592022-12-06 11:35:23-27.4444-59.049215844854Clb=6.5m/s t=-273.0C h=-1.0% p=-1.0hPa 402.000 MHz Type=RS41 ser=T4710359 Radiosonde